createdAt,value
2022-09-28T00:03:49.646Z,9.23
2022-09-28T00:08:52.581Z,12.02
2022-09-28T00:13:58.388Z,9.98
2022-09-28T00:19:01.626Z,9.82
2022-09-28T00:24:22.065Z,13.13
2022-09-28T00:29:33.682Z,15.05
2022-09-28T00:34:38.058Z,10.10
2022-09-28T00:39:44.541Z,9.23
2022-09-28T00:44:57.796Z,8.57
2022-09-28T00:50:06.023Z,9.38
2022-09-28T00:55:16.564Z,10.82
2022-09-28T01:00:19.527Z,8.13
2022-09-28T01:05:22.603Z,8.45
2022-09-28T01:10:25.500Z,9.02
2022-09-28T01:15:29.204Z,9.50
2022-09-28T01:20:52.024Z,10.60
2022-09-28T01:26:44.087Z,10.82
2022-09-28T01:31:51.665Z,18.52
2022-09-28T01:36:56.681Z,14.93
2022-09-28T01:42:03.663Z,10.38
2022-09-28T01:47:09.648Z,12.93
2022-09-28T01:52:21.208Z,15.75
2022-09-28T01:57:34.330Z,17.60
2022-09-28T02:02:56.298Z,14.85
2022-09-28T02:08:35.557Z,12.48
2022-09-28T02:13:46.068Z,16.05
2022-09-28T02:18:48.671Z,10.18
2022-09-28T02:23:57.986Z,13.82
2022-09-28T02:29:01.186Z,11.52
2022-09-28T02:34:05.126Z,13.35
2022-09-28T02:39:17.882Z,14.05
2022-09-28T02:44:57.825Z,16.88
2022-09-28T02:50:07.327Z,28.63
2022-09-28T02:55:44.047Z,13.30
2022-09-28T03:01:07.378Z,12.90
2022-09-28T03:06:15.046Z,13.57
2022-09-28T03:11:31.972Z,24.80
2022-09-28T03:16:35.299Z,20.50
2022-09-28T03:21:40.594Z,20.42
2022-09-28T03:26:43.322Z,10.45
2022-09-28T03:31:48.597Z,11.40
2022-09-28T03:36:51.527Z,10.07
2022-09-28T03:41:54.151Z,13.27
2022-09-28T03:46:59.242Z,9.38
2022-09-28T03:52:02.403Z,9.00
2022-09-28T03:57:05.342Z,12.80
2022-09-28T04:02:08.648Z,13.77
2022-09-28T04:07:11.321Z,11.60
2022-09-28T04:12:14.243Z,14.32
2022-09-28T04:17:16.828Z,11.25
2022-09-28T04:22:19.390Z,10.73
2022-09-28T04:27:40.622Z,9.73
2022-09-28T04:32:43.166Z,13.35
2022-09-28T04:37:45.738Z,8.82
2022-09-28T04:42:55.177Z,10.13
2022-09-28T04:47:58.138Z,11.30
2022-09-28T04:53:24.934Z,8.77
2022-09-28T04:58:28.983Z,7.75
2022-09-28T05:03:33.678Z,7.80
2022-09-28T05:08:48.995Z,10.35
2022-09-28T05:13:52.500Z,7.65
2022-09-28T05:18:56.710Z,10.15
2022-09-28T05:24:00.293Z,15.18
2022-09-28T05:29:03.369Z,10.27
2022-09-28T05:34:24.169Z,12.05
2022-09-28T05:39:29.898Z,13.68
2022-09-28T05:44:32.887Z,13.38
2022-09-28T05:49:37.162Z,11.07
2022-09-28T05:54:39.714Z,27.83
2022-09-28T05:59:43.643Z,11.30
2022-09-28T06:04:48.294Z,18.05
2022-09-28T06:09:51.774Z,11.38
2022-09-28T06:15:05.976Z,13.50
2022-09-28T06:20:09.293Z,27.07
2022-09-28T06:25:33.239Z,17.55
2022-09-28T06:30:38.544Z,12.77
2022-09-28T06:35:44.102Z,15.10
2022-09-28T06:40:46.924Z,13.48
2022-09-28T06:45:53.701Z,19.85
2022-09-28T06:51:07.511Z,23.73
2022-09-28T06:56:32.753Z,14.15
2022-09-28T07:01:36.168Z,35.40
2022-09-28T07:07:02.160Z,23.98
2022-09-28T07:12:25.479Z,21.50
2022-09-28T07:17:51.024Z,27.65
2022-09-28T07:23:11.546Z,49.50
2022-09-28T07:28:41.460Z,48.40
2022-09-28T07:33:56.609Z,43.15
2022-09-28T07:39:05.625Z,40.17
2022-09-28T07:44:08.800Z,46.47
2022-09-28T07:49:15.645Z,46.58
2022-09-28T07:54:31.395Z,50.83
2022-09-28T08:00:09.551Z,60.08
2022-09-28T08:05:21.147Z,52.80
2022-09-28T08:10:23.864Z,53.03
2022-09-28T08:15:37.947Z,57.80
2022-09-28T08:21:12.642Z,50.15
2022-09-28T08:26:16.129Z,33.75
2022-09-28T08:31:20.279Z,29.63
2022-09-28T08:36:41.645Z,18.15
2022-09-28T08:42:38.059Z,15.60
2022-09-28T08:48:25.189Z,10.93
2022-09-28T08:54:11.923Z,7.55
2022-09-28T08:59:42.227Z,9.02
2022-09-28T09:04:52.060Z,8.25
2022-09-28T09:10:22.154Z,5.88
2022-09-28T09:15:48.997Z,10.00
2022-09-28T09:21:16.782Z,3.88
2022-09-28T09:26:26.277Z,4.13
2022-09-28T09:31:50.151Z,5.63
2022-09-28T09:37:05.405Z,5.38
2022-09-28T09:42:43.169Z,5.05
2022-09-28T09:48:25.390Z,3.75
2022-09-28T09:53:30.388Z,2.92
2022-09-28T09:58:41.080Z,1.98
2022-09-28T10:03:59.042Z,2.17
2022-09-28T10:09:11.251Z,2.10
2022-09-28T10:14:17.463Z,7.78
2022-09-28T10:19:33.587Z,2.65
2022-09-28T10:24:57.559Z,1.83
2022-09-28T10:30:11.699Z,3.90
2022-09-28T10:35:41.903Z,2.58
2022-09-28T10:41:00.878Z,2.42
2022-09-28T10:46:23.542Z,3.92
2022-09-28T10:52:00.785Z,1.90
2022-09-28T10:57:27.636Z,1.65
2022-09-28T11:02:38.353Z,4.68
2022-09-28T11:07:47.397Z,1.75
2022-09-28T11:12:55.007Z,2.92
2022-09-28T11:18:24.497Z,2.70
2022-09-28T11:23:31.752Z,3.83
2022-09-28T11:28:51.374Z,4.13
2022-09-28T11:34:30.998Z,1.52
2022-09-28T11:40:16.165Z,4.25
2022-09-28T11:45:37.046Z,0.45
2022-09-28T11:51:20.759Z,1.13
2022-09-28T11:56:41.565Z,2.05
2022-09-28T12:02:01.235Z,2.10
2022-09-28T12:07:37.337Z,1.83
2022-09-28T12:12:50.912Z,3.60
2022-09-28T12:18:19.297Z,2.65
2022-09-28T12:23:35.737Z,2.42
2022-09-28T12:28:46.188Z,2.25
2022-09-28T12:33:52.901Z,2.33
2022-09-28T12:39:46.790Z,1.25
2022-09-28T12:45:12.608Z,1.98
2022-09-28T12:50:38.807Z,2.75
2022-09-28T12:56:03.200Z,1.25
2022-09-28T13:01:13.847Z,2.20
2022-09-28T13:06:36.835Z,1.45
2022-09-28T13:11:45.360Z,4.47
2022-09-28T13:16:58.407Z,2.83
2022-09-28T13:22:24.265Z,1.00
2022-09-28T13:27:32.197Z,1.83
2022-09-28T13:32:36.336Z,1.73
2022-09-28T13:37:38.913Z,1.85
2022-09-28T13:42:44.345Z,2.50
2022-09-28T13:48:14.673Z,1.33
2022-09-28T13:53:23.269Z,2.00
2022-09-28T13:58:38.469Z,1.80
2022-09-28T14:03:55.430Z,1.90
2022-09-28T14:09:12.866Z,2.45
2022-09-28T14:14:16.059Z,2.85
2022-09-28T14:19:21.685Z,1.65
2022-09-28T14:24:55.587Z,3.30
2022-09-28T14:30:20.021Z,1.42
2022-09-28T14:35:42.103Z,1.58
2022-09-28T14:41:09.604Z,5.57
2022-09-28T14:46:14.991Z,3.10
2022-09-28T14:51:26.666Z,2.00
2022-09-28T14:56:33.769Z,2.28
2022-09-28T15:01:36.755Z,1.65
2022-09-28T15:06:50.009Z,4.38
2022-09-28T15:11:57.552Z,5.10
2022-09-28T15:17:03.705Z,2.97
2022-09-28T15:22:23.063Z,3.40
2022-09-28T15:27:34.873Z,6.22
2022-09-28T15:32:37.436Z,5.32
2022-09-28T15:37:40.752Z,4.50
2022-09-28T15:42:45.268Z,2.35
2022-09-28T15:47:48.162Z,3.75
2022-09-28T15:53:04.825Z,2.10
2022-09-28T15:58:29.007Z,3.17
2022-09-28T16:03:32.354Z,3.78
2022-09-28T16:08:45.744Z,2.55
2022-09-28T16:13:56.296Z,3.53
2022-09-28T16:19:00.763Z,5.47
2022-09-28T16:24:04.027Z,3.40
2022-09-28T16:29:09.770Z,5.70
2022-09-28T16:34:21.250Z,3.63
2022-09-28T16:39:24.993Z,6.20
2022-09-28T16:44:30.195Z,3.22
2022-09-28T16:49:33.381Z,2.50
2022-09-28T16:54:54.718Z,2.80
2022-09-28T16:59:57.501Z,3.58
2022-09-28T17:05:00.195Z,8.50
2022-09-28T17:10:03.957Z,2.70
2022-09-28T17:15:08.052Z,2.90
2022-09-28T17:20:23.120Z,4.28
2022-09-28T17:25:26.760Z,2.92
2022-09-28T17:30:29.263Z,4.82
2022-09-28T17:35:34.091Z,3.03
2022-09-28T17:40:39.178Z,3.63
2022-09-28T17:45:41.928Z,4.60
2022-09-28T17:50:47.367Z,4.85
2022-09-28T17:55:50.494Z,6.38
2022-09-28T18:00:54.264Z,3.85
2022-09-28T18:06:03.770Z,3.67
2022-09-28T18:11:06.480Z,4.25
2022-09-28T18:16:09.339Z,3.25
2022-09-28T18:21:12.003Z,4.18
2022-09-28T18:26:16.364Z,5.68
2022-09-28T18:31:19.317Z,6.22
2022-09-28T18:36:30.938Z,4.78
2022-09-28T18:41:34.620Z,5.50
2022-09-28T18:46:37.313Z,6.22
2022-09-28T18:51:39.902Z,6.97
2022-09-28T18:56:45.006Z,3.92
2022-09-28T19:01:47.562Z,5.47
2022-09-28T19:06:52.313Z,4.28
2022-09-28T19:11:54.873Z,7.15
2022-09-28T19:16:57.504Z,4.32
2022-09-28T19:22:00.131Z,7.32
2022-09-28T19:27:02.963Z,6.00
2022-09-28T19:32:05.538Z,5.20
2022-09-28T19:37:08.204Z,7.45
2022-09-28T19:42:10.725Z,5.82
2022-09-28T19:47:13.451Z,7.28
2022-09-28T19:52:16.974Z,6.97
2022-09-28T19:57:20.194Z,5.97
2022-09-28T20:02:22.777Z,10.43
2022-09-28T20:07:25.508Z,6.85
2022-09-28T20:12:28.273Z,6.78
2022-09-28T20:17:32.063Z,10.48
2022-09-28T20:22:34.546Z,8.70
2022-09-28T20:27:39.272Z,6.82
2022-09-28T20:32:44.191Z,11.52
2022-09-28T20:37:50.247Z,12.38
2022-09-28T20:42:52.813Z,6.88
2022-09-28T20:47:55.399Z,16.67
2022-09-28T20:52:58.091Z,10.40
2022-09-28T20:58:05.336Z,9.68
2022-09-28T21:03:09.215Z,11.52
2022-09-28T21:08:12.165Z,13.80
2022-09-28T21:13:14.712Z,7.55
2022-09-28T21:18:18.070Z,6.78
2022-09-28T21:23:24.692Z,8.73
2022-09-28T21:28:27.691Z,7.72
2022-09-28T21:33:30.222Z,8.25
2022-09-28T21:38:33.154Z,14.77
2022-09-28T21:43:37.051Z,10.75
2022-09-28T21:48:40.414Z,12.60
2022-09-28T21:53:43.483Z,9.35
2022-09-28T21:59:04.792Z,11.10
2022-09-28T22:04:09.552Z,9.50
2022-09-28T22:14:15.446Z,11.50
2022-09-28T22:19:18.056Z,14.68
2022-09-28T22:24:20.687Z,7.15
2022-09-28T22:29:24.403Z,8.45
2022-09-28T22:34:29.307Z,8.90
2022-09-28T22:44:40.556Z,9.95
2022-09-28T22:49:43.193Z,7.18
2022-09-28T22:54:49.831Z,7.10
2022-09-28T22:59:52.358Z,14.43
2022-09-28T23:04:54.835Z,12.77
2022-09-28T23:09:59.764Z,9.32
2022-09-28T23:15:04.142Z,11.30
2022-09-28T23:20:07.116Z,8.00
2022-09-28T23:25:10.675Z,10.20
2022-09-28T23:30:15.854Z,9.43
2022-09-28T23:35:19.011Z,8.65
2022-09-28T23:40:21.712Z,8.35
2022-09-28T23:45:25.598Z,8.57
2022-09-28T23:50:29.374Z,9.27
2022-09-28T23:55:32.045Z,9.15
